sensor_id;sensor_type;location;lat;lon;timestamp;pressure;altitude;pressure_sealevel;temperature;humidity
66560;BME280;53413;49.878;8.142;2023-11-19T00:01:07;99733.88;;;10.83;100.00
66560;BME280;53413;49.878;8.142;2023-11-19T00:03:32;99740.75;;;10.85;100.00
66560;BME280;53413;49.878;8.142;2023-11-19T00:05:58;99735.50;;;10.85;100.00
66560;BME280;53413;49.878;8.142;2023-11-19T00:08:24;99745.16;;;10.85;100.00
66560;BME280;53413;49.878;8.142;2023-11-19T00:10:50;99743.31;;;10.87;100.00
66560;BME280;53413;49.878;8.142;2023-11-19T00:13:16;99757.19;;;10.89;100.00
66560;BME280;53413;49.878;8.142;2023-11-19T00:15:41;99764.22;;;10.88;100.00
66560;BME280;53413;49.878;8.142;2023-11-19T00:18:07;99759.69;;;10.92;100.00
66560;BME280;53413;49.878;8.142;2023-11-19T00:20:32;99751.81;;;10.92;100.00
66560;BME280;53413;49.878;8.142;2023-11-19T00:22:58;99750.81;;;10.94;100.00
66560;BME280;53413;49.878;8.142;2023-11-19T00:25:23;99742.00;;;10.97;100.00
66560;BME280;53413;49.878;8.142;2023-11-19T00:27:50;99748.88;;;11.00;100.00
66560;BME280;53413;49.878;8.142;2023-11-19T00:30:16;99750.56;;;11.01;100.00
66560;BME280;53413;49.878;8.142;2023-11-19T00:32:42;99745.34;;;11.01;100.00
66560;BME280;53413;49.878;8.142;2023-11-19T00:35:08;99737.38;;;11.02;100.00
66560;BME280;53413;49.878;8.142;2023-11-19T00:37:34;99731.19;;;11.05;100.00
66560;BME280;53413;49.878;8.142;2023-11-19T00:39:59;99738.13;;;11.06;100.00
66560;BME280;53413;49.878;8.142;2023-11-19T00:42:24;99726.78;;;11.05;100.00
66560;BME280;53413;49.878;8.142;2023-11-19T00:44:50;99739.78;;;11.07;100.00
66560;BME280;53413;49.878;8.142;2023-11-19T00:47:16;99735.50;;;11.06;100.00
66560;BME280;53413;49.878;8.142;2023-11-19T00:49:42;99740.66;;;11.07;100.00
66560;BME280;53413;49.878;8.142;2023-11-19T00:52:08;99737.75;;;11.14;100.00
66560;BME280;53413;49.878;8.142;2023-11-19T00:54:33;99721.88;;;11.17;100.00
66560;BME280;53413;49.878;8.142;2023-11-19T00:56:58;99713.97;;;11.18;100.00
66560;BME280;53413;49.878;8.142;2023-11-19T00:59:24;99719.25;;;11.17;100.00
66560;BME280;53413;49.878;8.142;2023-11-19T01:01:49;99692.03;;;11.19;100.00
66560;BME280;53413;49.878;8.142;2023-11-19T01:04:16;99680.22;;;11.11;100.00
66560;BME280;53413;49.878;8.142;2023-11-19T01:06:41;99704.88;;;11.06;100.00
66560;BME280;53413;49.878;8.142;2023-11-19T01:09:08;99703.31;;;11.02;100.00
66560;BME280;53413;49.878;8.142;2023-11-19T01:11:34;99699.13;;;10.98;100.00
66560;BME280;53413;49.878;8.142;2023-11-19T01:13:59;99697.44;;;10.97;100.00
66560;BME280;53413;49.878;8.142;2023-11-19T01:16:25;99695.72;;;10.96;100.00
66560;BME280;53413;49.878;8.142;2023-11-19T01:18:51;99698.41;;;10.94;100.00
66560;BME280;53413;49.878;8.142;2023-11-19T01:21:17;99674.75;;;10.96;100.00
66560;BME280;53413;49.878;8.142;2023-11-19T01:23:43;99669.56;;;10.94;100.00
66560;BME280;53413;49.878;8.142;2023-11-19T01:26:09;99676.66;;;10.92;100.00
66560;BME280;53413;49.878;8.142;2023-11-19T01:28:35;99690.47;;;10.96;100.00
66560;BME280;53413;49.878;8.142;2023-11-19T01:31:01;99674.47;;;11.02;100.00
66560;BME280;53413;49.878;8.142;2023-11-19T01:33:26;99663.41;;;10.96;100.00
66560;BME280;53413;49.878;8.142;2023-11-19T01:35:53;99686.03;;;10.98;100.00
66560;BME280;53413;49.878;8.142;2023-11-19T01:38:18;99697.22;;;11.02;100.00
66560;BME280;53413;49.878;8.142;2023-11-19T01:40:43;99706.56;;;11.07;100.00
66560;BME280;53413;49.878;8.142;2023-11-19T01:43:09;99680.44;;;11.06;100.00
66560;BME280;53413;49.878;8.142;2023-11-19T01:45:37;99680.34;;;11.07;100.00
66560;BME280;53413;49.878;8.142;2023-11-19T01:48:03;99665.47;;;11.08;100.00
66560;BME280;53413;49.878;8.142;2023-11-19T01:50:30;99655.88;;;11.07;100.00
66560;BME280;53413;49.878;8.142;2023-11-19T01:52:56;99646.41;;;11.04;100.00
66560;BME280;53413;49.878;8.142;2023-11-19T01:55:27;99637.91;;;10.99;100.00
66560;BME280;53413;49.878;8.142;2023-11-19T01:57:58;99627.63;;;10.94;100.00
66560;BME280;53413;49.878;8.142;2023-11-19T02:00:24;99622.59;;;10.90;100.00
66560;BME280;53413;49.878;8.142;2023-11-19T02:02:52;99620.88;;;10.89;100.00
66560;BME280;53413;49.878;8.142;2023-11-19T02:05:17;99618.47;;;10.84;100.00
66560;BME280;53413;49.878;8.142;2023-11-19T02:07:43;99612.31;;;10.85;100.00
66560;BME280;53413;49.878;8.142;2023-11-19T02:10:09;99617.63;;;10.84;100.00
66560;BME280;53413;49.878;8.142;2023-11-19T02:12:40;99609.13;;;10.78;100.00
66560;BME280;53413;49.878;8.142;2023-11-19T02:15:08;99606.59;;;10.77;100.00
66560;BME280;53413;49.878;8.142;2023-11-19T02:17:34;99615.50;;;10.92;100.00
66560;BME280;53413;49.878;8.142;2023-11-19T02:20:07;99621.44;;;10.96;100.00
66560;BME280;53413;49.878;8.142;2023-11-19T02:22:37;99626.56;;;10.99;100.00
66560;BME280;53413;49.878;8.142;2023-11-19T02:25:08;99621.19;;;11.02;100.00
66560;BME280;53413;49.878;8.142;2023-11-19T02:30:11;99612.25;;;11.06;100.00
66560;BME280;53413;49.878;8.142;2023-11-19T02:32:36;99604.88;;;10.95;100.00
66560;BME280;53413;49.878;8.142;2023-11-19T02:35:04;99608.50;;;10.92;100.00
66560;BME280;53413;49.878;8.142;2023-11-19T02:37:29;99605.81;;;10.94;100.00
66560;BME280;53413;49.878;8.142;2023-11-19T02:39:54;99592.69;;;10.94;100.00
66560;BME280;53413;49.878;8.142;2023-11-19T02:42:20;99584.00;;;10.93;100.00
66560;BME280;53413;49.878;8.142;2023-11-19T02:44:45;99582.34;;;10.91;100.00
66560;BME280;53413;49.878;8.142;2023-11-19T02:47:11;99581.44;;;10.92;100.00
66560;BME280;53413;49.878;8.142;2023-11-19T02:49:37;99581.50;;;10.90;100.00
66560;BME280;53413;49.878;8.142;2023-11-19T02:52:03;99584.19;;;10.89;100.00
66560;BME280;53413;49.878;8.142;2023-11-19T02:54:30;99579.88;;;10.88;100.00
66560;BME280;53413;49.878;8.142;2023-11-19T02:57:00;99581.50;;;10.90;100.00
66560;BME280;53413;49.878;8.142;2023-11-19T02:59:26;99586.75;;;10.90;100.00
66560;BME280;53413;49.878;8.142;2023-11-19T03:01:53;99591.00;;;10.93;100.00
66560;BME280;53413;49.878;8.142;2023-11-19T03:04:18;99587.22;;;10.99;100.00
66560;BME280;53413;49.878;8.142;2023-11-19T03:06:45;99580.28;;;10.98;100.00
66560;BME280;53413;49.878;8.142;2023-11-19T03:09:11;99576.75;;;10.99;100.00
66560;BME280;53413;49.878;8.142;2023-11-19T03:11:36;99570.72;;;10.97;100.00
66560;BME280;53413;49.878;8.142;2023-11-19T03:14:01;99578.81;;;10.92;100.00
66560;BME280;53413;49.878;8.142;2023-11-19T03:16:28;99578.09;;;10.88;100.00
66560;BME280;53413;49.878;8.142;2023-11-19T03:18:54;99566.84;;;10.86;100.00
66560;BME280;53413;49.878;8.142;2023-11-19T03:21:27;99566.00;;;10.86;100.00
66560;BME280;53413;49.878;8.142;2023-11-19T03:23:52;99568.63;;;10.86;100.00
66560;BME280;53413;49.878;8.142;2023-11-19T03:26:17;99560.75;;;10.86;100.00
66560;BME280;53413;49.878;8.142;2023-11-19T03:28:43;99565.09;;;10.87;100.00
66560;BME280;53413;49.878;8.142;2023-11-19T03:31:08;99571.28;;;10.84;100.00
66560;BME280;53413;49.878;8.142;2023-11-19T03:33:33;99572.06;;;10.86;100.00
66560;BME280;53413;49.878;8.142;2023-11-19T03:35:59;99571.25;;;10.86;100.00
66560;BME280;53413;49.878;8.142;2023-11-19T03:38:24;99565.91;;;10.87;100.00
66560;BME280;53413;49.878;8.142;2023-11-19T03:40:50;99560.69;;;10.87;100.00
66560;BME280;53413;49.878;8.142;2023-11-19T03:43:15;99565.09;;;10.87;100.00
66560;BME280;53413;49.878;8.142;2023-11-19T03:45:41;99561.53;;;10.88;100.00
66560;BME280;53413;49.878;8.142;2023-11-19T03:48:06;99564.16;;;10.88;100.00
66560;BME280;53413;49.878;8.142;2023-11-19T03:50:31;99565.84;;;10.89;100.00
66560;BME280;53413;49.878;8.142;2023-11-19T03:52:56;99564.06;;;10.89;100.00
66560;BME280;53413;49.878;8.142;2023-11-19T03:55:22;99558.69;;;10.92;100.00
66560;BME280;53413;49.878;8.142;2023-11-19T03:57:47;99570.09;;;10.91;100.00
66560;BME280;53413;49.878;8.142;2023-11-19T04:00:13;99564.06;;;10.89;100.00
66560;BME280;53413;49.878;8.142;2023-11-19T04:02:40;99566.69;;;10.89;100.00
66560;BME280;53413;49.878;8.142;2023-11-19T04:05:06;99561.47;;;10.89;100.00
66560;BME280;53413;49.878;8.142;2023-11-19T04:07:32;99566.00;;;10.86;100.00
66560;BME280;53413;49.878;8.142;2023-11-19T04:09:57;99559.97;;;10.84;100.00
66560;BME280;53413;49.878;8.142;2023-11-19T04:12:23;99549.50;;;10.84;100.00
66560;BME280;53413;49.878;8.142;2023-11-19T04:14:48;99542.53;;;10.83;100.00
66560;BME280;53413;49.878;8.142;2023-11-19T04:17:13;99540.94;;;10.80;100.00
66560;BME280;53413;49.878;8.142;2023-11-19T04:19:39;99556.78;;;10.77;100.00
66560;BME280;53413;49.878;8.142;2023-11-19T04:22:07;99553.47;;;10.73;100.00
66560;BME280;53413;49.878;8.142;2023-11-19T04:24:34;99553.47;;;10.73;100.00
66560;BME280;53413;49.878;8.142;2023-11-19T04:26:59;99566.28;;;10.80;100.00
66560;BME280;53413;49.878;8.142;2023-11-19T04:29:24;99561.81;;;10.82;100.00
66560;BME280;53413;49.878;8.142;2023-11-19T04:31:50;99566.00;;;10.86;100.00
66560;BME280;53413;49.878;8.142;2023-11-19T04:34:15;99546.72;;;10.87;100.00
66560;BME280;53413;49.878;8.142;2023-11-19T04:36:41;99551.06;;;10.88;100.00
66560;BME280;53413;49.878;8.142;2023-11-19T04:39:06;99545.09;;;10.84;100.00
66560;BME280;53413;49.878;8.142;2023-11-19T04:41:35;99547.88;;;10.81;100.00
66560;BME280;53413;49.878;8.142;2023-11-19T04:44:01;99548.56;;;10.85;100.00
66560;BME280;53413;49.878;8.142;2023-11-19T04:46:26;99547.72;;;10.84;100.00
66560;BME280;53413;49.878;8.142;2023-11-19T04:48:52;99556.13;;;10.72;100.00
66560;BME280;53413;49.878;8.142;2023-11-19T04:51:17;99554.94;;;10.60;100.00
66560;BME280;53413;49.878;8.142;2023-11-19T04:53:42;99553.59;;;10.51;100.00
66560;BME280;53413;49.878;8.142;2023-11-19T04:56:08;99547.34;;;10.54;100.00
66560;BME280;53413;49.878;8.142;2023-11-19T04:58:34;99544.38;;;10.61;100.00
66560;BME280;53413;49.878;8.142;2023-11-19T05:01:01;99540.50;;;10.70;100.00
66560;BME280;53413;49.878;8.142;2023-11-19T05:03:26;99550.63;;;10.78;100.00
66560;BME280;53413;49.878;8.142;2023-11-19T05:05:52;99551.06;;;10.88;100.00
66560;BME280;53413;49.878;8.142;2023-11-19T05:08:17;99551.53;;;10.96;100.00
66560;BME280;53413;49.878;8.142;2023-11-19T05:10:42;99555.41;;;11.06;100.00
66560;BME280;53413;49.878;8.142;2023-11-19T05:13:07;99550.81;;;11.12;100.00
66560;BME280;53413;49.878;8.142;2023-11-19T05:15:33;99548.75;;;11.18;100.00
66560;BME280;53413;49.878;8.142;2023-11-19T05:17:58;99557.22;;;11.23;100.00
66560;BME280;53413;49.878;8.142;2023-11-19T05:20:24;99555.38;;;11.26;100.00
66560;BME280;53413;49.878;8.142;2023-11-19T05:22:49;99547.16;;;11.33;100.00
66560;BME280;53413;49.878;8.142;2023-11-19T05:25:16;99548.84;;;11.34;100.00
66560;BME280;53413;49.878;8.142;2023-11-19T05:27:41;99540.75;;;11.39;100.00
66560;BME280;53413;49.878;8.142;2023-11-19T05:30:07;99548.38;;;11.44;100.00
66560;BME280;53413;49.878;8.142;2023-11-19T05:32:33;99550.00;;;11.46;100.00
66560;BME280;53413;49.878;8.142;2023-11-19T05:34:58;99543.84;;;11.47;100.00
66560;BME280;53413;49.878;8.142;2023-11-19T05:37:24;99545.44;;;11.50;100.00
66560;BME280;53413;49.878;8.142;2023-11-19T05:39:50;99549.00;;;11.49;100.00
66560;BME280;53413;49.878;8.142;2023-11-19T05:42:15;99549.78;;;11.51;100.00
66560;BME280;53413;49.878;8.142;2023-11-19T05:44:41;99542.63;;;11.54;100.00
66560;BME280;53413;49.878;8.142;2023-11-19T05:47:06;99540.69;;;11.58;100.00
66560;BME280;53413;49.878;8.142;2023-11-19T05:49:32;99548.38;;;11.61;100.00
66560;BME280;53413;49.878;8.142;2023-11-19T05:51:58;99550.03;;;11.64;100.00
66560;BME280;53413;49.878;8.142;2023-11-19T05:54:23;99556.13;;;11.64;100.00
66560;BME280;53413;49.878;8.142;2023-11-19T05:56:48;99557.81;;;11.65;100.00
66560;BME280;53413;49.878;8.142;2023-11-19T05:59:14;99558.69;;;11.66;100.00
66560;BME280;53413;49.878;8.142;2023-11-19T06:01:43;99565.53;;;11.68;100.00
66560;BME280;53413;49.878;8.142;2023-11-19T06:04:09;99551.34;;;11.73;100.00
66560;BME280;53413;49.878;8.142;2023-11-19T06:06:35;99556.50;;;11.74;100.00
66560;BME280;53413;49.878;8.142;2023-11-19T06:09:00;99562.59;;;11.75;100.00
66560;BME280;53413;49.878;8.142;2023-11-19T06:11:26;99558.22;;;11.75;100.00
66560;BME280;53413;49.878;8.142;2023-11-19T06:13:52;99564.25;;;11.77;100.00
66560;BME280;53413;49.878;8.142;2023-11-19T06:16:18;99565.84;;;11.80;100.00
66560;BME280;53413;49.878;8.142;2023-11-19T06:18:43;99565.53;;;11.86;100.00
66560;BME280;53413;49.878;8.142;2023-11-19T06:21:09;99574.31;;;11.85;100.00
66560;BME280;53413;49.878;8.142;2023-11-19T06:23:34;99576.88;;;11.86;100.00
66560;BME280;53413;49.878;8.142;2023-11-19T06:26:00;99581.13;;;11.89;100.00
66560;BME280;53413;49.878;8.142;2023-11-19T06:28:25;99578.25;;;11.94;100.00
66560;BME280;53413;49.878;8.142;2023-11-19T06:30:50;99582.53;;;11.96;100.00
66560;BME280;53413;49.878;8.142;2023-11-19T06:33:16;99578.69;;;12.04;100.00
66560;BME280;53413;49.878;8.142;2023-11-19T06:35:41;99586.41;;;12.07;100.00
66560;BME280;53413;49.878;8.142;2023-11-19T06:38:06;99583.69;;;12.08;100.00
66560;BME280;53413;49.878;8.142;2023-11-19T06:40:32;99578.78;;;12.02;100.00
66560;BME280;53413;49.878;8.142;2023-11-19T06:42:58;99579.66;;;11.83;100.00
66560;BME280;53413;49.878;8.142;2023-11-19T06:45:23;99585.91;;;11.63;100.00
66560;BME280;53413;49.878;8.142;2023-11-19T06:47:49;99580.56;;;11.47;100.00
66560;BME280;53413;49.878;8.142;2023-11-19T06:50:15;99575.22;;;11.31;100.00
66560;BME280;53413;49.878;8.142;2023-11-19T06:52:41;99579.28;;;11.19;100.00
66560;BME280;53413;49.878;8.142;2023-11-19T06:55:06;99577.78;;;11.14;100.00
66560;BME280;53413;49.878;8.142;2023-11-19T06:57:32;99577.22;;;11.07;100.00
66560;BME280;53413;49.878;8.142;2023-11-19T06:59:58;99579.31;;;11.00;100.00
66560;BME280;53413;49.878;8.142;2023-11-19T07:02:24;99569.75;;;10.99;100.00
66560;BME280;53413;49.878;8.142;2023-11-19T07:04:49;99562.63;;;11.01;100.00
66560;BME280;53413;49.878;8.142;2023-11-19T07:07:15;99566.69;;;11.08;100.00
66560;BME280;53413;49.878;8.142;2023-11-19T07:09:40;99570.66;;;11.17;100.00
66560;BME280;53413;49.878;8.142;2023-11-19T07:12:06;99567.72;;;11.23;100.00
66560;BME280;53413;49.878;8.142;2023-11-19T07:14:31;99572.81;;;11.27;100.00
66560;BME280;53413;49.878;8.142;2023-11-19T07:16:56;99570.25;;;11.25;100.00
66560;BME280;53413;49.878;8.142;2023-11-19T07:19:22;99571.97;;;11.26;100.00
66560;BME280;53413;49.878;8.142;2023-11-19T07:21:47;99570.66;;;11.35;100.00
66560;BME280;53413;49.878;8.142;2023-11-19T07:24:13;99573.69;;;11.45;100.00
66560;BME280;53413;49.878;8.142;2023-11-19T07:26:43;99579.13;;;11.59;100.00
66560;BME280;53413;49.878;8.142;2023-11-19T07:29:09;99572.25;;;11.74;100.00
66560;BME280;53413;49.878;8.142;2023-11-19T07:31:34;99564.94;;;11.98;100.00
66560;BME280;53413;49.878;8.142;2023-11-19T07:33:59;99551.34;;;12.57;100.00
66560;BME280;53413;49.878;8.142;2023-11-19T07:36:25;99552.38;;;13.96;100.00
66560;BME280;53413;49.878;8.142;2023-11-19T07:38:50;99542.13;;;15.20;100.00
66560;BME280;53413;49.878;8.142;2023-11-19T07:41:16;99545.38;;;15.91;100.00
66560;BME280;53413;49.878;8.142;2023-11-19T07:43:44;99549.78;;;17.05;100.00
66560;BME280;53413;49.878;8.142;2023-11-19T07:46:12;99548.16;;;18.45;100.00
66560;BME280;53413;49.878;8.142;2023-11-19T07:48:38;99558.53;;;19.59;95.67
66560;BME280;53413;49.878;8.142;2023-11-19T07:51:04;99559.34;;;22.70;83.52
66560;BME280;53413;49.878;8.142;2023-11-19T07:53:29;99560.09;;;24.52;70.80
66560;BME280;53413;49.878;8.142;2023-11-19T07:55:55;99566.19;;;26.37;59.62
66560;BME280;53413;49.878;8.142;2023-11-19T07:58:20;99574.44;;;26.27;59.60
66560;BME280;53413;49.878;8.142;2023-11-19T08:00:46;99564.91;;;25.84;58.66
66560;BME280;53413;49.878;8.142;2023-11-19T08:03:11;99573.63;;;25.86;57.68
66560;BME280;53413;49.878;8.142;2023-11-19T08:05:36;99584.34;;;26.19;56.52
66560;BME280;53413;49.878;8.142;2023-11-19T08:08:02;99589.41;;;25.72;55.97
66560;BME280;53413;49.878;8.142;2023-11-19T08:10:27;99590.28;;;26.62;52.84
66560;BME280;53413;49.878;8.142;2023-11-19T08:12:52;99585.00;;;29.22;49.52
66560;BME280;53413;49.878;8.142;2023-11-19T08:15:18;99592.19;;;30.01;46.79
66560;BME280;53413;49.878;8.142;2023-11-19T08:17:43;99593.66;;;29.54;45.84
66560;BME280;53413;49.878;8.142;2023-11-19T08:20:09;99595.56;;;29.01;47.58
66560;BME280;53413;49.878;8.142;2023-11-19T08:22:38;99597.50;;;27.33;48.92
66560;BME280;53413;49.878;8.142;2023-11-19T08:25:05;99605.59;;;23.81;56.93
66560;BME280;53413;49.878;8.142;2023-11-19T08:27:30;99601.09;;;21.26;62.53
66560;BME280;53413;49.878;8.142;2023-11-19T08:29:56;99609.06;;;19.48;69.39
66560;BME280;53413;49.878;8.142;2023-11-19T08:32:22;99614.44;;;18.23;76.53
66560;BME280;53413;49.878;8.142;2023-11-19T08:34:48;99629.00;;;17.33;83.36
66560;BME280;53413;49.878;8.142;2023-11-19T08:37:13;99625.75;;;16.66;90.73
66560;BME280;53413;49.878;8.142;2023-11-19T08:39:39;99628.72;;;16.23;98.56
66560;BME280;53413;49.878;8.142;2023-11-19T08:42:05;99621.16;;;15.91;100.00
66560;BME280;53413;49.878;8.142;2023-11-19T08:44:30;99624.75;;;15.62;100.00
66560;BME280;53413;49.878;8.142;2023-11-19T08:46:56;99622.44;;;15.43;100.00
66560;BME280;53413;49.878;8.142;2023-11-19T08:49:21;99638.53;;;15.26;100.00
66560;BME280;53413;49.878;8.142;2023-11-19T08:51:47;99639.50;;;15.10;100.00
66560;BME280;53413;49.878;8.142;2023-11-19T08:54:12;99640.28;;;14.98;100.00
66560;BME280;53413;49.878;8.142;2023-11-19T08:56:38;99642.63;;;14.88;100.00
66560;BME280;53413;49.878;8.142;2023-11-19T08:59:04;99637.00;;;14.94;100.00
66560;BME280;53413;49.878;8.142;2023-11-19T09:01:29;99642.34;;;16.81;100.00
66560;BME280;53413;49.878;8.142;2023-11-19T09:03:55;99636.16;;;17.19;100.00
66560;BME280;53413;49.878;8.142;2023-11-19T09:06:20;99639.59;;;16.70;100.00
66560;BME280;53413;49.878;8.142;2023-11-19T09:08:46;99629.75;;;16.72;100.00
66560;BME280;53413;49.878;8.142;2023-11-19T09:11:11;99622.09;;;17.06;100.00
66560;BME280;53413;49.878;8.142;2023-11-19T09:13:37;99620.78;;;16.61;100.00
66560;BME280;53413;49.878;8.142;2023-11-19T09:16:02;99621.38;;;15.88;100.00
66560;BME280;53413;49.878;8.142;2023-11-19T09:18:29;99619.16;;;15.39;100.00
66560;BME280;53413;49.878;8.142;2023-11-19T09:20:54;99630.63;;;15.53;100.00
66560;BME280;53413;49.878;8.142;2023-11-19T09:23:20;99619.97;;;15.13;100.00
66560;BME280;53413;49.878;8.142;2023-11-19T09:25:45;99635.47;;;14.61;100.00
66560;BME280;53413;49.878;8.142;2023-11-19T09:28:10;99645.03;;;14.33;100.00
66560;BME280;53413;49.878;8.142;2023-11-19T09:30:36;99645.97;;;14.77;100.00
66560;BME280;53413;49.878;8.142;2023-11-19T09:33:01;99654.56;;;15.22;100.00
66560;BME280;53413;49.878;8.142;2023-11-19T09:35:27;99659.78;;;15.51;100.00
66560;BME280;53413;49.878;8.142;2023-11-19T09:37:52;99657.34;;;15.48;100.00
66560;BME280;53413;49.878;8.142;2023-11-19T09:40:18;99662.38;;;15.24;100.00
66560;BME280;53413;49.878;8.142;2023-11-19T09:42:44;99659.50;;;15.00;100.00
66560;BME280;53413;49.878;8.142;2023-11-19T09:45:14;99661.31;;;14.85;100.00
66560;BME280;53413;49.878;8.142;2023-11-19T09:47:43;99664.47;;;14.61;100.00
66560;BME280;53413;49.878;8.142;2023-11-19T09:50:11;99665.13;;;14.50;100.00
66560;BME280;53413;49.878;8.142;2023-11-19T09:52:39;99660.97;;;14.60;100.00
66560;BME280;53413;49.878;8.142;2023-11-19T09:55:04;99657.31;;;14.49;100.00
66560;BME280;53413;49.878;8.142;2023-11-19T09:57:31;99651.28;;;14.46;100.00
66560;BME280;53413;49.878;8.142;2023-11-19T09:59:58;99651.81;;;14.52;100.00
66560;BME280;53413;49.878;8.142;2023-11-19T10:02:23;99650.53;;;14.59;100.00
66560;BME280;53413;49.878;8.142;2023-11-19T10:04:49;99653.56;;;14.67;100.00
66560;BME280;53413;49.878;8.142;2023-11-19T10:07:16;99653.72;;;14.64;100.00
66560;BME280;53413;49.878;8.142;2023-11-19T10:09:41;99645.97;;;14.77;100.00
66560;BME280;53413;49.878;8.142;2023-11-19T10:12:06;99641.69;;;15.03;100.00
66560;BME280;53413;49.878;8.142;2023-11-19T10:14:34;99639.56;;;15.23;100.00
66560;BME280;53413;49.878;8.142;2023-11-19T10:17:03;99642.94;;;15.39;100.00
66560;BME280;53413;49.878;8.142;2023-11-19T10:19:29;99640.84;;;15.45;100.00
66560;BME280;53413;49.878;8.142;2023-11-19T10:21:54;99631.91;;;15.60;100.00
66560;BME280;53413;49.878;8.142;2023-11-19T10:24:32;99624.09;;;15.86;100.00
66560;BME280;53413;49.878;8.142;2023-11-19T10:26:59;99616.97;;;16.27;100.00
66560;BME280;53413;49.878;8.142;2023-11-19T10:29:25;99616.97;;;16.66;100.00
66560;BME280;53413;49.878;8.142;2023-11-19T10:31:57;99619.09;;;16.60;100.00
66560;BME280;53413;49.878;8.142;2023-11-19T10:34:26;99613.91;;;16.46;100.00
66560;BME280;53413;49.878;8.142;2023-11-19T10:36:52;99612.31;;;16.30;100.00
66560;BME280;53413;49.878;8.142;2023-11-19T10:39:18;99618.78;;;16.52;100.00
66560;BME280;53413;49.878;8.142;2023-11-19T10:41:43;99613.81;;;17.11;100.00
66560;BME280;53413;49.878;8.142;2023-11-19T10:44:08;99609.25;;;17.50;100.00
66560;BME280;53413;49.878;8.142;2023-11-19T10:46:41;99606.81;;;17.47;100.00
66560;BME280;53413;49.878;8.142;2023-11-19T10:49:08;99608.00;;;17.43;100.00
66560;BME280;53413;49.878;8.142;2023-11-19T10:51:33;99608.91;;;17.54;100.00
66560;BME280;53413;49.878;8.142;2023-11-19T10:54:02;99607.94;;;18.27;100.00
66560;BME280;53413;49.878;8.142;2023-11-19T10:56:31;99593.97;;;18.48;98.63
66560;BME280;53413;49.878;8.142;2023-11-19T10:58:59;99590.13;;;18.52;97.50
66560;BME280;53413;49.878;8.142;2023-11-19T11:01:27;99599.03;;;18.39;96.07
66560;BME280;53413;49.878;8.142;2023-11-19T11:03:57;99593.84;;;18.26;95.09
66560;BME280;53413;49.878;8.142;2023-11-19T11:06:26;99597.94;;;18.30;95.37
66560;BME280;53413;49.878;8.142;2023-11-19T11:08:51;99594.22;;;18.33;96.67
66560;BME280;53413;49.878;8.142;2023-11-19T11:11:18;99580.97;;;18.33;96.00
66560;BME280;53413;49.878;8.142;2023-11-19T11:13:47;99575.34;;;18.02;96.34
66560;BME280;53413;49.878;8.142;2023-11-19T11:16:14;99589.00;;;17.73;97.12
66560;BME280;53413;49.878;8.142;2023-11-19T11:18:40;99583.44;;;17.41;98.70
66560;BME280;53413;49.878;8.142;2023-11-19T11:21:09;99578.63;;;17.21;96.49
66560;BME280;53413;49.878;8.142;2023-11-19T11:31:44;99595.19;;;17.12;93.44
66560;BME280;53413;49.878;8.142;2023-11-19T11:39:35;99582.38;;;17.19;87.88
66560;BME280;53413;49.878;8.142;2023-11-19T11:45:07;99584.31;;;17.04;87.09
66560;BME280;53413;49.878;8.142;2023-11-19T11:50:07;99574.34;;;16.44;84.48
66560;BME280;53413;49.878;8.142;2023-11-19T11:52:33;99582.19;;;16.33;86.99
66560;BME280;53413;49.878;8.142;2023-11-19T11:55:04;99569.06;;;16.19;87.91
66560;BME280;53413;49.878;8.142;2023-11-19T11:57:36;99570.97;;;16.16;90.15
66560;BME280;53413;49.878;8.142;2023-11-19T12:00:02;99566.31;;;16.20;88.51
66560;BME280;53413;49.878;8.142;2023-11-19T12:02:30;99563.34;;;16.25;90.95
66560;BME280;53413;49.878;8.142;2023-11-19T12:04:56;99565.91;;;16.26;87.15
66560;BME280;53413;49.878;8.142;2023-11-19T12:07:23;99558.72;;;16.28;84.96
66560;BME280;53413;49.878;8.142;2023-11-19T12:09:53;99560.41;;;16.29;82.46
66560;BME280;53413;49.878;8.142;2023-11-19T12:12:27;99558.16;;;16.23;79.86
66560;BME280;53413;49.878;8.142;2023-11-19T12:20:06;99545.69;;;16.12;78.44
66560;BME280;53413;49.878;8.142;2023-11-19T12:22:37;99553.41;;;16.15;78.60
66560;BME280;53413;49.878;8.142;2023-11-19T12:25:04;99548.03;;;16.17;79.33
66560;BME280;53413;49.878;8.142;2023-11-19T12:27:30;99543.69;;;16.16;77.86
66560;BME280;53413;49.878;8.142;2023-11-19T12:29:55;99538.19;;;16.06;77.66
66560;BME280;53413;49.878;8.142;2023-11-19T12:32:22;99535.63;;;15.79;78.56
66560;BME280;53413;49.878;8.142;2023-11-19T12:34:47;99544.63;;;15.49;80.77
66560;BME280;53413;49.878;8.142;2023-11-19T12:37:13;99527.19;;;15.33;80.15
66560;BME280;53413;49.878;8.142;2023-11-19T12:39:39;99526.06;;;15.23;80.96
66560;BME280;53413;49.878;8.142;2023-11-19T12:42:05;99515.19;;;15.15;81.17
66560;BME280;53413;49.878;8.142;2023-11-19T12:44:30;99518.38;;;15.20;81.90
66560;BME280;53413;49.878;8.142;2023-11-19T12:47:00;99524.59;;;15.19;82.54
66560;BME280;53413;49.878;8.142;2023-11-19T12:49:26;99514.22;;;15.16;83.40
66560;BME280;53413;49.878;8.142;2023-11-19T12:51:52;99515.97;;;15.02;81.42
66560;BME280;53413;49.878;8.142;2023-11-19T12:54:17;99520.66;;;15.12;82.27
66560;BME280;53413;49.878;8.142;2023-11-19T12:56:53;99511.34;;;15.33;83.18
66560;BME280;53413;49.878;8.142;2023-11-19T12:59:18;99505.78;;;15.51;83.28
66560;BME280;53413;49.878;8.142;2023-11-19T13:04:21;99494.38;;;15.63;81.99
66560;BME280;53413;49.878;8.142;2023-11-19T13:06:47;99485.50;;;15.64;79.57
66560;BME280;53413;49.878;8.142;2023-11-19T13:09:22;99490.59;;;15.67;79.87
66560;BME280;53413;49.878;8.142;2023-11-19T13:11:49;99500.53;;;15.77;78.82
66560;BME280;53413;49.878;8.142;2023-11-19T13:14:14;99508.34;;;15.78;78.37
66560;BME280;53413;49.878;8.142;2023-11-19T13:16:40;99503.91;;;15.79;78.58